TAM8013 SGAS-SBGL
Flight info
| Callsign | TAM8013 |
|---|---|
| Flight time | N/A |
| Altitude | 35000 |
| Route | ROLOK ROLOK UM548 KAMIL UZ28 XONUG DCT VUREP |
| Aircraft | A320/M-SDE3FGHIRWY/LB1 |
Departure
| Time | 2026-04-21 13:38 |
|---|---|
| Airport | Silvio Pettirossi International Airport (SGAS) |
Arrival
| Time | N/A |
|---|---|
| Airport | Rio Galeão – Tom Jobim International Airport (SBGL) |
| Time | Latitude | Longitude | Altitude | Speed | Heading |
|---|---|---|---|---|---|
| 2026-04-21 12:59 | -25.24232 | -57.51550 | 302 ft | 0 kts | 100° |
| 2026-04-21 13:16 | -25.24227 | -57.51573 | 302 ft | 4 kts | 110° |
| 2026-04-21 13:17 | -25.24218 | -57.51601 | 300 ft | 4 kts | 97° |
| 2026-04-21 13:17 | -25.24222 | -57.51624 | 299 ft | 4 kts | 64° |
| 2026-04-21 13:17 | -25.24236 | -57.51649 | 301 ft | 4 kts | 47° |
| 2026-04-21 13:17 | -25.24256 | -57.51668 | 300 ft | 4 kts | 25° |
| 2026-04-21 13:18 | -25.24282 | -57.51677 | 300 ft | 4 kts | 11° |
| 2026-04-21 13:18 | -25.24305 | -57.51684 | 300 ft | 4 kts | 57° |
| 2026-04-21 13:18 | -25.24307 | -57.51690 | 301 ft | 1 kts | 98° |
| 2026-04-21 13:18 | -25.24307 | -57.51692 | 301 ft | 0 kts | 98° |
| 2026-04-21 13:20 | -25.24307 | -57.51691 | 301 ft | 1 kts | 97° |
| 2026-04-21 13:20 | -25.24300 | -57.51677 | 303 ft | 3 kts | 55° |
| 2026-04-21 13:21 | -25.24296 | -57.51661 | 301 ft | 2 kts | 125° |
| 2026-04-21 13:21 | -25.24329 | -57.51658 | 301 ft | 7 kts | 176° |
| 2026-04-21 13:21 | -25.24373 | -57.51684 | 303 ft | 9 kts | 270° |
| 2026-04-21 13:21 | -25.24384 | -57.51747 | 300 ft | 8 kts | 248° |
| 2026-04-21 13:22 | -25.24404 | -57.51799 | 301 ft | 11 kts | 239° |
| 2026-04-21 13:22 | -25.24492 | -57.51834 | 300 ft | 14 kts | 191° |
| 2026-04-21 13:22 | -25.24583 | -57.51858 | 301 ft | 13 kts | 193° |
| 2026-04-21 13:22 | -25.24694 | -57.51887 | 299 ft | 11 kts | 190° |
| 2026-04-21 13:23 | -25.24742 | -57.51897 | 300 ft | 10 kts | 192° |
| 2026-04-21 13:23 | -25.24802 | -57.51912 | 302 ft | 8 kts | 194° |
| 2026-04-21 13:23 | -25.24852 | -57.51925 | 300 ft | 7 kts | 190° |
| 2026-04-21 13:23 | -25.24892 | -57.51934 | 300 ft | 5 kts | 194° |
| 2026-04-21 13:24 | -25.24922 | -57.51944 | 299 ft | 4 kts | 197° |
| 2026-04-21 13:24 | -25.24953 | -57.51951 | 301 ft | 5 kts | 189° |
| 2026-04-21 13:24 | -25.24982 | -57.51956 | 299 ft | 4 kts | 190° |
| 2026-04-21 13:24 | -25.25002 | -57.51960 | 302 ft | 2 kts | 190° |
| 2026-04-21 13:25 | -25.25020 | -57.51964 | 300 ft | 5 kts | 191° |
| 2026-04-21 13:25 | -25.25082 | -57.51979 | 302 ft | 12 kts | 193° |
| 2026-04-21 13:25 | -25.25164 | -57.52001 | 301 ft | 11 kts | 193° |
| 2026-04-21 13:25 | -25.25233 | -57.52021 | 300 ft | 9 kts | 193° |
| 2026-04-21 13:26 | -25.25291 | -57.52031 | 300 ft | 8 kts | 187° |
| 2026-04-21 13:26 | -25.25335 | -57.52049 | 298 ft | 6 kts | 203° |
| 2026-04-21 13:26 | -25.25370 | -57.52059 | 298 ft | 4 kts | 191° |
| 2026-04-21 13:26 | -25.25393 | -57.52063 | 300 ft | 3 kts | 186° |
| 2026-04-21 13:27 | -25.25408 | -57.52065 | 299 ft | 4 kts | 186° |
| 2026-04-21 13:27 | -25.25448 | -57.52074 | 302 ft | 5 kts | 195° |
| 2026-04-21 13:27 | -25.25475 | -57.52088 | 302 ft | 3 kts | 221° |
| 2026-04-21 13:27 | -25.25481 | -57.52105 | 301 ft | 2 kts | 254° |
| 2026-04-21 13:28 | -25.25481 | -57.52113 | 302 ft | 0 kts | 266° |
| 2026-04-21 13:28 | -25.25480 | -57.52124 | 300 ft | 2 kts | 281° |
| 2026-04-21 13:28 | -25.25477 | -57.52132 | 300 ft | 1 kts | 288° |
| 2026-04-21 13:28 | -25.25477 | -57.52133 | 300 ft | 0 kts | 287° |
| 2026-04-21 13:37 | -25.25474 | -57.52177 | 299 ft | 10 kts | 275° |
| 2026-04-21 13:37 | -25.25455 | -57.52247 | 300 ft | 9 kts | 296° |
| 2026-04-21 13:37 | -25.25407 | -57.52258 | 300 ft | 6 kts | 10° |
| 2026-04-21 13:37 | -25.25386 | -57.52254 | 299 ft | 19 kts | 11° |
| 2026-04-21 13:38 | -25.24959 | -57.52151 | 299 ft | 104 kts | 12° |
| 2026-04-21 13:38 | -25.24015 | -57.51920 | 309 ft | 168 kts | 13° |
| 2026-04-21 13:38 | -25.22830 | -57.51613 | 894 ft | 178 kts | 12° |
| 2026-04-21 13:38 | -25.21580 | -57.51315 | 1575 ft | 187 kts | 9° |
| 2026-04-21 13:39 | -25.20273 | -57.51018 | 1955 ft | 201 kts | 11° |
| 2026-04-21 13:39 | -25.18815 | -57.50672 | 2216 ft | 226 kts | 10° |
| 2026-04-21 13:39 | -25.17198 | -57.50283 | 2578 ft | 250 kts | 9° |
| 2026-04-21 13:39 | -25.15452 | -57.49861 | 3249 ft | 260 kts | 9° |
| 2026-04-21 13:40 | -25.13679 | -57.49374 | 4090 ft | 266 kts | 18° |
| 2026-04-21 13:40 | -25.12195 | -57.48119 | 4898 ft | 280 kts | 52° |
| 2026-04-21 13:40 | -25.11543 | -57.46101 | 5722 ft | 291 kts | 85° |
| 2026-04-21 13:40 | -25.11962 | -57.43900 | 6526 ft | 299 kts | 117° |
| 2026-04-21 13:41 | -25.13138 | -57.41990 | 7279 ft | 303 kts | 130° |
| 2026-04-21 13:41 | -25.14498 | -57.40200 | 8055 ft | 305 kts | 130° |
| 2026-04-21 13:41 | -25.15873 | -57.38397 | 8834 ft | 308 kts | 130° |
| 2026-04-21 13:41 | -25.17137 | -57.36482 | 9555 ft | 311 kts | 116° |
| 2026-04-21 13:42 | -25.17757 | -57.34197 | 10271 ft | 313 kts | 97° |
| 2026-04-21 13:42 | -25.18196 | -57.31759 | 10504 ft | 336 kts | 102° |
| 2026-04-21 13:42 | -25.18829 | -57.29176 | 10678 ft | 360 kts | 105° |
| 2026-04-21 13:42 | -25.19567 | -57.26471 | 11010 ft | 374 kts | 106° |
| 2026-04-21 13:43 | -25.20334 | -57.23702 | 11561 ft | 380 kts | 106° |
| 2026-04-21 13:43 | -25.21095 | -57.20886 | 12220 ft | 384 kts | 106° |
| 2026-04-21 13:43 | -25.21825 | -57.18082 | 12868 ft | 386 kts | 105° |
| 2026-04-21 13:43 | -25.22548 | -57.15211 | 13496 ft | 390 kts | 105° |
| 2026-04-21 13:44 | -25.23259 | -57.12306 | 14064 ft | 393 kts | 105° |
| 2026-04-21 13:44 | -25.23967 | -57.09369 | 14567 ft | 397 kts | 104° |
| 2026-04-21 13:44 | -25.24680 | -57.06410 | 15072 ft | 401 kts | 105° |
| 2026-04-21 13:44 | -25.25406 | -57.03420 | 15584 ft | 404 kts | 105° |
| 2026-04-21 13:45 | -25.26138 | -57.00406 | 16085 ft | 407 kts | 105° |
| 2026-04-21 13:45 | -25.26879 | -56.97370 | 16587 ft | 410 kts | 105° |
| 2026-04-21 13:45 | -25.27621 | -56.94320 | 17075 ft | 413 kts | 105° |
| 2026-04-21 13:45 | -25.28369 | -56.91242 | 17560 ft | 416 kts | 105° |
| 2026-04-21 13:46 | -25.29115 | -56.88181 | 18029 ft | 420 kts | 105° |
| 2026-04-21 13:46 | -25.29876 | -56.85058 | 18463 ft | 423 kts | 105° |
| 2026-04-21 13:46 | -25.30645 | -56.81908 | 18853 ft | 426 kts | 105° |
| 2026-04-21 13:46 | -25.31417 | -56.78733 | 19235 ft | 429 kts | 105° |
| 2026-04-21 13:47 | -25.32195 | -56.75528 | 19623 ft | 432 kts | 105° |
| 2026-04-21 13:47 | -25.32973 | -56.72312 | 20007 ft | 435 kts | 105° |
| 2026-04-21 13:47 | -25.33757 | -56.69071 | 20379 ft | 438 kts | 105° |
| 2026-04-21 13:47 | -25.34547 | -56.65808 | 20742 ft | 441 kts | 105° |
| 2026-04-21 13:48 | -25.35345 | -56.62521 | 21092 ft | 445 kts | 104° |
| 2026-04-21 13:48 | -25.35914 | -56.59155 | 21432 ft | 448 kts | 97° |
| 2026-04-21 13:48 | -25.36299 | -56.55725 | 21787 ft | 451 kts | 97° |
| 2026-04-21 13:48 | -25.36686 | -56.52272 | 22140 ft | 454 kts | 97° |
| 2026-04-21 13:49 | -25.37077 | -56.48807 | 22487 ft | 457 kts | 97° |
| 2026-04-21 13:49 | -25.37476 | -56.45306 | 22831 ft | 459 kts | 97° |
| 2026-04-21 13:49 | -25.37877 | -56.41791 | 23161 ft | 462 kts | 97° |
| 2026-04-21 13:49 | -25.38283 | -56.38250 | 23502 ft | 465 kts | 97° |
| 2026-04-21 13:50 | -25.38690 | -56.34693 | 23808 ft | 468 kts | 97° |
| 2026-04-21 13:50 | -25.39099 | -56.31109 | 24081 ft | 471 kts | 97° |
| 2026-04-21 13:50 | -25.39504 | -56.27506 | 24362 ft | 473 kts | 97° |
| 2026-04-21 13:50 | -25.39908 | -56.23888 | 24640 ft | 475 kts | 97° |
| 2026-04-21 13:51 | -25.40313 | -56.20257 | 24902 ft | 477 kts | 97° |
| 2026-04-21 13:51 | -25.40717 | -56.16650 | 25154 ft | 480 kts | 97° |
| 2026-04-21 13:51 | -25.41126 | -56.12983 | 25413 ft | 482 kts | 97° |
| 2026-04-21 13:51 | -25.41536 | -56.09297 | 25677 ft | 484 kts | 97° |
| 2026-04-21 13:52 | -25.41949 | -56.05588 | 25940 ft | 486 kts | 97° |
| 2026-04-21 13:52 | -25.42361 | -56.01865 | 26206 ft | 489 kts | 97° |
| 2026-04-21 13:52 | -25.42774 | -55.98129 | 26461 ft | 491 kts | 97° |
| 2026-04-21 13:52 | -25.43192 | -55.94364 | 26720 ft | 494 kts | 97° |
| 2026-04-21 13:53 | -25.43612 | -55.90586 | 26969 ft | 496 kts | 97° |
| 2026-04-21 13:53 | -25.44030 | -55.86782 | 27217 ft | 498 kts | 97° |
| 2026-04-21 13:53 | -25.44447 | -55.82961 | 27465 ft | 501 kts | 97° |
| 2026-04-21 13:53 | -25.44864 | -55.79130 | 27700 ft | 503 kts | 97° |
| 2026-04-21 13:54 | -25.45281 | -55.75278 | 27933 ft | 505 kts | 97° |
| 2026-04-21 13:54 | -25.45697 | -55.71413 | 28171 ft | 506 kts | 97° |
| 2026-04-21 13:54 | -25.46115 | -55.67536 | 28399 ft | 508 kts | 97° |
| 2026-04-21 13:54 | -25.46535 | -55.63639 | 28617 ft | 511 kts | 97° |
| 2026-04-21 13:55 | -25.46957 | -55.59729 | 28832 ft | 513 kts | 97° |
| 2026-04-21 13:55 | -25.47379 | -55.55813 | 29044 ft | 515 kts | 97° |
| 2026-04-21 13:55 | -25.47801 | -55.51871 | 29261 ft | 516 kts | 97° |
| 2026-04-21 13:55 | -25.48225 | -55.47919 | 29504 ft | 517 kts | 97° |
| 2026-04-21 13:56 | -25.48650 | -55.43962 | 29818 ft | 517 kts | 97° |
| 2026-04-21 13:56 | -25.49066 | -55.40059 | 30135 ft | 517 kts | 97° |
| 2026-04-21 13:56 | -25.49349 | -55.37394 | 30311 ft | 517 kts | 97° |
| 2026-04-21 13:56 | -25.49902 | -55.32158 | 30647 ft | 517 kts | 97° |